createdAt,value
2023-09-19T00:00:23.000Z,81.41
2023-09-19T00:01:21.000Z,81.32
2023-09-19T00:02:21.000Z,81.21
2023-09-19T00:03:22.000Z,80.96
2023-09-19T00:04:30.000Z,81.42
2023-09-19T00:05:23.000Z,81.00
2023-09-19T00:06:21.000Z,81.03
2023-09-19T00:07:21.000Z,81.60
2023-09-19T00:08:24.000Z,81.05
2023-09-19T00:09:21.000Z,81.06
2023-09-19T00:10:24.000Z,80.91
2023-09-19T00:11:25.000Z,80.83
2023-09-19T00:12:21.000Z,80.92
2023-09-19T00:13:21.000Z,80.88
2023-09-19T00:14:24.000Z,80.83
2023-09-19T00:15:22.000Z,80.81
2023-09-19T00:16:22.000Z,81.80
2023-09-19T00:17:21.000Z,81.39
2023-09-19T00:18:22.000Z,81.20
2023-09-19T00:19:22.000Z,81.29
2023-09-19T00:20:23.000Z,81.11
2023-09-19T00:21:22.000Z,81.11
2023-09-19T00:22:21.000Z,81.10
2023-09-19T00:23:22.000Z,81.31
2023-09-19T00:24:23.000Z,81.17
2023-09-19T00:25:21.000Z,81.06
2023-09-19T00:26:21.000Z,81.40
2023-09-19T00:27:22.000Z,81.48
2023-09-19T00:28:21.000Z,81.45
2023-09-19T00:29:23.000Z,81.29
2023-09-19T00:30:24.000Z,81.19
2023-09-19T00:31:25.000Z,81.28
2023-09-19T00:32:21.000Z,81.09
2023-09-19T00:33:22.000Z,81.30
2023-09-19T00:34:21.000Z,81.28
2023-09-19T00:35:24.000Z,81.49
2023-09-19T00:36:22.000Z,81.87
2023-09-19T00:37:21.000Z,81.37
2023-09-19T00:38:24.000Z,81.22
2023-09-19T00:39:21.000Z,81.23
2023-09-19T00:40:22.000Z,81.13
2023-09-19T00:41:21.000Z,81.30
2023-09-19T00:42:22.000Z,81.61
2023-09-19T00:43:23.000Z,81.71
2023-09-19T00:44:22.000Z,81.56
2023-09-19T00:45:21.000Z,81.53
2023-09-19T00:46:22.000Z,81.41
2023-09-19T00:47:22.000Z,81.33
2023-09-19T00:48:23.000Z,81.29
2023-09-19T00:49:22.000Z,81.31
2023-09-19T00:50:24.000Z,81.61
2023-09-19T00:51:22.000Z,82.08
2023-09-19T00:52:23.000Z,81.59
2023-09-19T00:53:23.000Z,81.62
2023-09-19T00:54:21.000Z,81.63
2023-09-19T00:55:23.000Z,82.53
2023-09-19T00:56:22.000Z,82.05
2023-09-19T00:57:22.000Z,82.06
2023-09-19T00:58:21.000Z,82.24
2023-09-19T00:59:21.000Z,82.22
2023-09-19T01:00:23.000Z,82.12
2023-09-19T01:01:21.000Z,82.33
2023-09-19T01:02:21.000Z,81.98
2023-09-19T01:03:21.000Z,82.24
2023-09-19T01:04:22.000Z,82.17
2023-09-19T01:05:23.000Z,82.49
2023-09-19T01:06:21.000Z,82.53
2023-09-19T01:07:22.000Z,82.44
2023-09-19T01:08:21.000Z,82.51
2023-09-19T01:09:21.000Z,82.73
2023-09-19T01:10:22.000Z,82.67
2023-09-19T01:11:32.000Z,82.85
2023-09-19T01:12:32.000Z,83.47
2023-09-19T01:13:43.000Z,83.11
2023-09-19T01:14:35.000Z,82.82
2023-09-19T01:15:31.000Z,82.78
2023-09-19T01:16:41.000Z,82.98
2023-09-19T01:17:29.000Z,83.11
2023-09-19T01:18:41.000Z,83.40
2023-09-19T01:19:36.000Z,83.96
2023-09-19T01:20:35.000Z,83.44
2023-09-19T01:21:49.000Z,83.72
2023-09-19T01:22:32.000Z,83.65
2023-09-19T01:23:32.000Z,83.74
2023-09-19T01:24:48.000Z,83.80
2023-09-19T01:25:32.000Z,83.95
2023-09-19T01:26:51.000Z,84.19
2023-09-19T01:27:32.000Z,83.85
2023-09-19T01:28:32.000Z,84.13
2023-09-19T01:29:34.000Z,84.03
2023-09-19T01:30:26.000Z,84.27
2023-09-19T01:31:30.000Z,84.37
2023-09-19T01:32:23.000Z,84.62
2023-09-19T01:33:23.000Z,84.19
2023-09-19T01:34:22.000Z,84.14
2023-09-19T01:35:22.000Z,83.98
2023-09-19T01:36:23.000Z,83.87
2023-09-19T01:37:25.000Z,84.11
2023-09-19T01:38:22.000Z,84.01
2023-09-19T01:39:22.000Z,83.78
2023-09-19T01:40:22.000Z,84.01
2023-09-19T01:41:35.000Z,84.39
2023-09-19T01:42:31.000Z,84.51
2023-09-19T01:43:30.000Z,84.37
2023-09-19T01:44:30.000Z,84.09
2023-09-19T01:45:40.000Z,84.07
2023-09-19T01:46:28.000Z,84.29
2023-09-19T01:47:32.000Z,84.25
2023-09-19T01:48:35.000Z,84.34
2023-09-19T01:49:35.000Z,84.17
2023-09-19T01:50:38.000Z,84.11
2023-09-19T01:51:41.000Z,84.60
2023-09-19T01:52:27.000Z,84.18
2023-09-19T01:53:26.000Z,84.06
2023-09-19T01:54:32.000Z,84.37
2023-09-19T01:55:26.000Z,84.26
2023-09-19T01:56:30.000Z,84.10
2023-09-19T01:57:42.000Z,84.35
2023-09-19T01:58:34.000Z,84.64
2023-09-19T01:59:25.000Z,84.50
2023-09-19T02:00:23.000Z,84.54
2023-09-19T02:01:24.000Z,84.41
2023-09-19T02:02:23.000Z,84.10
2023-09-19T02:03:23.000Z,84.18
2023-09-19T02:04:21.000Z,84.42
2023-09-19T02:05:23.000Z,84.30
2023-09-19T02:06:22.000Z,84.71
2023-09-19T02:07:22.000Z,84.49
2023-09-19T02:08:23.000Z,84.48
2023-09-19T02:09:22.000Z,84.48
2023-09-19T02:10:22.000Z,84.98
2023-09-19T02:11:21.000Z,84.86
2023-09-19T02:12:21.000Z,84.61
2023-09-19T02:13:22.000Z,84.49
2023-09-19T02:14:22.000Z,84.39
2023-09-19T02:15:22.000Z,84.63
2023-09-19T02:16:21.000Z,84.81
2023-09-19T02:17:23.000Z,84.63
2023-09-19T02:18:22.000Z,84.84
2023-09-19T02:19:21.000Z,84.94
2023-09-19T02:20:22.000Z,85.04
2023-09-19T02:21:22.000Z,84.64
2023-09-19T02:22:24.000Z,84.76
2023-09-19T02:23:21.000Z,85.04
2023-09-19T02:24:26.000Z,84.89
2023-09-19T02:25:21.000Z,84.81
2023-09-19T02:26:23.000Z,84.99
2023-09-19T02:27:21.000Z,84.64
2023-09-19T02:28:21.000Z,84.77
2023-09-19T02:29:21.000Z,84.69
2023-09-19T02:30:22.000Z,84.74
2023-09-19T02:31:21.000Z,84.50
2023-09-19T02:32:22.000Z,84.59
2023-09-19T02:33:21.000Z,84.67
2023-09-19T02:34:21.000Z,84.35
2023-09-19T02:35:21.000Z,84.18
2023-09-19T02:36:22.000Z,84.22
2023-09-19T02:37:21.000Z,84.27
2023-09-19T02:38:24.000Z,84.18
2023-09-19T02:39:21.000Z,84.47
2023-09-19T02:40:21.000Z,84.49
2023-09-19T02:41:21.000Z,84.95
2023-09-19T02:42:21.000Z,84.70
2023-09-19T02:43:22.000Z,84.84
2023-09-19T02:44:22.000Z,84.92
2023-09-19T02:45:22.000Z,85.05
2023-09-19T02:46:21.000Z,84.50
2023-09-19T02:47:22.000Z,84.76
2023-09-19T02:48:21.000Z,84.91
2023-09-19T02:49:21.000Z,84.49
2023-09-19T02:50:21.000Z,84.84
2023-09-19T02:51:21.000Z,84.76
2023-09-19T02:52:22.000Z,84.56
2023-09-19T02:53:22.000Z,84.53
2023-09-19T02:54:23.000Z,84.92
2023-09-19T02:55:22.000Z,84.53
2023-09-19T02:56:22.000Z,84.33
2023-09-19T02:57:24.000Z,84.70
2023-09-19T02:58:23.000Z,84.37
2023-09-19T02:59:22.000Z,85.10
2023-09-19T03:00:23.000Z,84.93
2023-09-19T03:01:22.000Z,84.63
2023-09-19T03:02:24.000Z,84.86
2023-09-19T03:03:23.000Z,84.56
2023-09-19T03:04:22.000Z,84.48
2023-09-19T03:05:23.000Z,84.76
2023-09-19T03:06:22.000Z,84.63
2023-09-19T03:07:22.000Z,84.67
2023-09-19T03:08:22.000Z,84.92
2023-09-19T03:09:23.000Z,84.48
2023-09-19T03:10:22.000Z,84.67
2023-09-19T03:11:23.000Z,84.35
2023-09-19T03:12:22.000Z,84.39
2023-09-19T03:13:22.000Z,84.35
2023-09-19T03:14:23.000Z,84.43
2023-09-19T03:15:22.000Z,84.61
2023-09-19T03:16:22.000Z,84.33
2023-09-19T03:17:22.000Z,84.20
2023-09-19T03:18:24.000Z,84.41
2023-09-19T03:19:23.000Z,84.57
2023-09-19T03:20:22.000Z,84.15
2023-09-19T03:21:22.000Z,84.01
2023-09-19T03:22:22.000Z,84.32
2023-09-19T03:23:22.000Z,84.10
2023-09-19T03:24:22.000Z,84.56
2023-09-19T03:25:23.000Z,84.52
2023-09-19T03:26:22.000Z,84.32
2023-09-19T03:27:22.000Z,84.21
2023-09-19T03:28:22.000Z,84.11
2023-09-19T03:29:22.000Z,84.45
2023-09-19T03:30:22.000Z,84.37
2023-09-19T03:31:22.000Z,84.26
2023-09-19T03:32:22.000Z,84.26
2023-09-19T03:33:22.000Z,84.24
2023-09-19T03:34:22.000Z,84.06
2023-09-19T03:35:22.000Z,83.96
2023-09-19T03:36:22.000Z,84.02
2023-09-19T03:37:22.000Z,84.16
2023-09-19T03:38:22.000Z,84.20
2023-09-19T03:39:22.000Z,84.21
2023-09-19T03:40:23.000Z,84.07
2023-09-19T03:41:22.000Z,83.90
2023-09-19T03:42:25.000Z,84.05
2023-09-19T03:43:22.000Z,83.86
2023-09-19T03:44:22.000Z,83.97
2023-09-19T03:45:22.000Z,84.07
2023-09-19T03:46:22.000Z,84.20
2023-09-19T03:47:22.000Z,83.94
2023-09-19T03:48:23.000Z,84.07
2023-09-19T03:49:22.000Z,83.87
2023-09-19T03:50:22.000Z,84.30
2023-09-19T03:51:22.000Z,83.88
2023-09-19T03:52:22.000Z,84.25
2023-09-19T03:53:22.000Z,84.32
2023-09-19T03:54:22.000Z,84.03
2023-09-19T03:55:21.000Z,84.23
2023-09-19T03:56:22.000Z,84.08
2023-09-19T03:57:22.000Z,84.06
2023-09-19T03:58:22.000Z,83.94
2023-09-19T03:59:22.000Z,83.82
2023-09-19T04:00:23.000Z,83.70
2023-09-19T04:01:22.000Z,83.79
2023-09-19T04:02:23.000Z,83.57
2023-09-19T04:03:22.000Z,83.78
2023-09-19T04:04:23.000Z,83.69
2023-09-19T04:05:22.000Z,83.84
2023-09-19T04:06:22.000Z,84.39
2023-09-19T04:07:22.000Z,84.30
2023-09-19T04:08:21.000Z,84.35
2023-09-19T04:09:22.000Z,83.99
2023-09-19T04:10:22.000Z,83.75
2023-09-19T04:11:22.000Z,83.65
2023-09-19T04:12:22.000Z,83.56
2023-09-19T04:13:22.000Z,83.61
2023-09-19T04:14:22.000Z,83.50
2023-09-19T04:15:24.000Z,83.62
2023-09-19T04:16:22.000Z,84.40
2023-09-19T04:17:23.000Z,83.70
2023-09-19T04:18:23.000Z,83.80
2023-09-19T04:19:21.000Z,83.59
2023-09-19T04:20:25.000Z,83.74
2023-09-19T04:21:22.000Z,83.52
2023-09-19T04:22:22.000Z,83.56
2023-09-19T04:23:21.000Z,83.91
2023-09-19T04:24:22.000Z,83.61
2023-09-19T04:25:22.000Z,83.67
2023-09-19T04:26:21.000Z,83.54
2023-09-19T04:27:22.000Z,83.52
2023-09-19T04:28:22.000Z,83.54
2023-09-19T04:29:21.000Z,83.42
2023-09-19T04:30:21.000Z,83.32
2023-09-19T04:31:22.000Z,83.54
2023-09-19T04:32:21.000Z,83.36
2023-09-19T04:33:21.000Z,83.22
2023-09-19T04:34:22.000Z,83.21
2023-09-19T04:35:21.000Z,83.09
2023-09-19T04:36:22.000Z,83.03
2023-09-19T04:37:21.000Z,83.01
2023-09-19T04:38:21.000Z,82.91
2023-09-19T04:39:26.000Z,82.87
2023-09-19T04:40:23.000Z,82.84
2023-09-19T04:41:22.000Z,82.91
2023-09-19T04:42:25.000Z,82.86
2023-09-19T04:43:21.000Z,82.84
2023-09-19T04:44:22.000Z,82.79
2023-09-19T04:45:22.000Z,82.79
2023-09-19T04:46:21.000Z,82.78
2023-09-19T04:47:22.000Z,82.71
2023-09-19T04:48:22.000Z,82.92
2023-09-19T04:49:21.000Z,82.81
2023-09-19T04:50:22.000Z,82.72
2023-09-19T04:51:21.000Z,82.80
2023-09-19T04:52:22.000Z,82.72
2023-09-19T04:53:21.000Z,82.69
2023-09-19T04:54:22.000Z,82.71
2023-09-19T04:55:22.000Z,82.93
2023-09-19T04:56:23.000Z,82.70
2023-09-19T04:57:22.000Z,82.68
2023-09-19T04:58:22.000Z,82.62
2023-09-19T04:59:23.000Z,82.67
2023-09-19T05:00:25.000Z,82.71
2023-09-19T05:01:22.000Z,82.87
2023-09-19T05:02:22.000Z,82.79
2023-09-19T05:03:22.000Z,82.74
2023-09-19T05:04:22.000Z,82.69
2023-09-19T05:05:23.000Z,82.64
2023-09-19T05:06:22.000Z,82.72
2023-09-19T05:07:26.000Z,82.78
2023-09-19T05:08:22.000Z,82.84
2023-09-19T05:09:22.000Z,82.78
2023-09-19T05:10:22.000Z,82.72
2023-09-19T05:11:22.000Z,82.71
2023-09-19T05:12:22.000Z,82.70
2023-09-19T05:13:23.000Z,82.88
2023-09-19T05:14:22.000Z,82.76
2023-09-19T05:15:22.000Z,82.69
2023-09-19T05:16:22.000Z,82.80
2023-09-19T05:17:22.000Z,83.27
2023-09-19T05:18:22.000Z,83.26
2023-09-19T05:19:22.000Z,83.29
2023-09-19T05:20:29.000Z,83.00
2023-09-19T05:21:22.000Z,82.84
2023-09-19T05:22:22.000Z,82.94
2023-09-19T05:23:22.000Z,83.30
2023-09-19T05:24:23.000Z,83.06
2023-09-19T05:25:21.000Z,83.40
2023-09-19T05:26:21.000Z,83.03
2023-09-19T05:27:21.000Z,83.04
2023-09-19T05:28:21.000Z,82.75
2023-09-19T05:29:22.000Z,82.73
2023-09-19T05:30:21.000Z,82.77
2023-09-19T05:31:22.000Z,82.94
2023-09-19T05:32:23.000Z,82.77
2023-09-19T05:33:21.000Z,82.89
2023-09-19T05:34:21.000Z,82.99
2023-09-19T05:35:22.000Z,82.76
2023-09-19T05:36:21.000Z,82.84
2023-09-19T05:37:21.000Z,82.61
2023-09-19T05:38:22.000Z,82.55
2023-09-19T05:39:22.000Z,82.49
2023-09-19T05:40:21.000Z,82.44
2023-09-19T05:41:21.000Z,82.66
2023-09-19T05:42:21.000Z,82.35
2023-09-19T05:43:21.000Z,82.29
2023-09-19T05:44:21.000Z,82.31
2023-09-19T05:45:25.000Z,82.15
2023-09-19T05:46:21.000Z,82.22
2023-09-19T05:47:22.000Z,82.22
2023-09-19T05:48:21.000Z,82.11
2023-09-19T05:49:21.000Z,82.10
2023-09-19T05:50:21.000Z,81.96
2023-09-19T05:51:22.000Z,81.84
2023-09-19T05:52:22.000Z,81.80
2023-09-19T05:53:23.000Z,81.78
2023-09-19T05:54:22.000Z,81.72
2023-09-19T05:55:24.000Z,81.74
2023-09-19T05:56:22.000Z,81.68
2023-09-19T05:57:22.000Z,81.90
2023-09-19T05:58:21.000Z,81.70
2023-09-19T05:59:22.000Z,81.70
2023-09-19T06:00:26.000Z,81.67
2023-09-19T06:01:22.000Z,81.67
2023-09-19T06:02:21.000Z,81.63
2023-09-19T06:03:21.000Z,81.66
2023-09-19T06:04:22.000Z,81.44
2023-09-19T06:05:26.000Z,81.42
2023-09-19T06:06:21.000Z,81.48
2023-09-19T06:07:26.000Z,81.48
2023-09-19T06:08:21.000Z,81.73
2023-09-19T06:09:21.000Z,81.67
2023-09-19T06:10:22.000Z,81.80
2023-09-19T06:11:23.000Z,81.76
2023-09-19T06:12:22.000Z,81.84
2023-09-19T06:13:21.000Z,81.85
2023-09-19T06:14:23.000Z,81.99
2023-09-19T06:15:25.000Z,82.02
2023-09-19T06:16:22.000Z,81.97
2023-09-19T06:17:22.000Z,81.67
2023-09-19T06:18:21.000Z,81.57
2023-09-19T06:19:22.000Z,81.92
2023-09-19T06:20:23.000Z,81.68
2023-09-19T06:21:22.000Z,81.62
2023-09-19T06:22:22.000Z,81.63
2023-09-19T06:23:22.000Z,81.62
2023-09-19T06:24:21.000Z,81.53
2023-09-19T06:25:22.000Z,81.35
2023-09-19T06:26:21.000Z,81.25
2023-09-19T06:27:22.000Z,81.36
2023-09-19T06:28:25.000Z,81.24
2023-09-19T06:29:23.000Z,81.19
2023-09-19T06:30:24.000Z,81.14
2023-09-19T06:31:23.000Z,80.85
2023-09-19T06:32:27.000Z,81.08
2023-09-19T06:33:22.000Z,81.08
2023-09-19T06:34:22.000Z,81.00
2023-09-19T06:35:22.000Z,81.03
2023-09-19T06:36:22.000Z,81.01
2023-09-19T06:37:22.000Z,80.97
2023-09-19T06:38:22.000Z,80.89
2023-09-19T06:39:23.000Z,80.79
2023-09-19T06:40:21.000Z,80.78
2023-09-19T06:41:25.000Z,80.84
2023-09-19T06:42:23.000Z,80.98
2023-09-19T06:43:21.000Z,80.80
2023-09-19T06:44:24.000Z,80.83
2023-09-19T06:45:23.000Z,80.58
2023-09-19T06:46:21.000Z,80.37
2023-09-19T06:47:21.000Z,80.56
2023-09-19T06:48:21.000Z,80.28
2023-09-19T06:49:21.000Z,80.30
2023-09-19T06:50:25.000Z,80.55
2023-09-19T06:51:21.000Z,80.24
2023-09-19T06:52:22.000Z,80.16
2023-09-19T06:53:24.000Z,80.30
2023-09-19T06:54:21.000Z,80.50
2023-09-19T06:55:24.000Z,80.52
2023-09-19T06:56:24.000Z,80.64
2023-09-19T06:57:21.000Z,80.28
2023-09-19T06:58:21.000Z,80.51
2023-09-19T06:59:21.000Z,80.43
2023-09-19T07:00:24.000Z,80.54
2023-09-19T07:01:21.000Z,80.66
2023-09-19T07:02:21.000Z,80.88
2023-09-19T07:03:24.000Z,80.82
2023-09-19T07:04:21.000Z,80.99
2023-09-19T07:05:21.000Z,81.25
2023-09-19T07:06:21.000Z,81.38
2023-09-19T07:07:21.000Z,81.37
2023-09-19T07:08:21.000Z,81.44
2023-09-19T07:09:21.000Z,81.50
2023-09-19T07:10:23.000Z,81.57
2023-09-19T07:11:21.000Z,81.96
2023-09-19T07:12:21.000Z,81.68
2023-09-19T07:13:21.000Z,81.22
2023-09-19T07:14:21.000Z,81.12
2023-09-19T07:15:22.000Z,80.97
2023-09-19T07:16:27.000Z,80.89
2023-09-19T07:17:23.000Z,80.59
2023-09-19T07:18:21.000Z,80.49
2023-09-19T07:19:21.000Z,80.70
2023-09-19T07:20:22.000Z,80.94
2023-09-19T07:21:21.000Z,80.92
2023-09-19T07:22:23.000Z,80.06
2023-09-19T07:23:23.000Z,80.39
2023-09-19T07:24:23.000Z,80.35
2023-09-19T07:25:21.000Z,80.46
2023-09-19T07:26:21.000Z,80.33
2023-09-19T07:27:21.000Z,80.13
2023-09-19T07:28:22.000Z,80.11
2023-09-19T07:29:22.000Z,79.86
2023-09-19T07:30:22.000Z,79.75
2023-09-19T07:31:23.000Z,79.66
2023-09-19T07:32:22.000Z,79.30
2023-09-19T07:33:21.000Z,78.61
2023-09-19T07:34:23.000Z,79.10
2023-09-19T07:35:21.000Z,79.11
2023-09-19T07:36:24.000Z,78.55
2023-09-19T07:37:22.000Z,78.24
2023-09-19T07:38:22.000Z,78.59
2023-09-19T07:39:22.000Z,78.32
2023-09-19T07:40:24.000Z,78.38
2023-09-19T07:41:22.000Z,78.49
2023-09-19T07:42:22.000Z,78.10
2023-09-19T07:43:22.000Z,76.91
2023-09-19T07:44:21.000Z,76.77
2023-09-19T07:45:22.000Z,76.43
2023-09-19T07:46:22.000Z,76.16
2023-09-19T07:47:22.000Z,76.55
2023-09-19T07:48:21.000Z,76.78
2023-09-19T07:49:22.000Z,76.34
2023-09-19T07:50:22.000Z,76.16
2023-09-19T07:51:22.000Z,76.70
2023-09-19T07:52:23.000Z,76.40
2023-09-19T07:53:22.000Z,75.51
2023-09-19T07:54:22.000Z,76.06
2023-09-19T07:55:25.000Z,75.30
2023-09-19T07:56:22.000Z,75.19
2023-09-19T07:57:22.000Z,75.31
2023-09-19T07:58:22.000Z,75.34
2023-09-19T07:59:21.000Z,75.40
2023-09-19T08:00:21.000Z,74.69
2023-09-19T08:01:23.000Z,75.20
2023-09-19T08:02:22.000Z,75.11
2023-09-19T08:03:22.000Z,74.98
2023-09-19T08:04:21.000Z,74.80
2023-09-19T08:05:22.000Z,74.88
2023-09-19T08:06:21.000Z,74.97
2023-09-19T08:07:23.000Z,74.96
2023-09-19T08:08:21.000Z,74.68
2023-09-19T08:09:21.000Z,74.87
2023-09-19T08:10:21.000Z,74.71
2023-09-19T08:11:24.000Z,73.44
2023-09-19T08:12:22.000Z,73.30
2023-09-19T08:13:25.000Z,72.69
2023-09-19T08:14:24.000Z,72.05
2023-09-19T08:15:21.000Z,73.35
2023-09-19T08:16:22.000Z,73.92
2023-09-19T08:17:22.000Z,73.81
2023-09-19T08:18:22.000Z,72.28
2023-09-19T08:19:23.000Z,72.77
2023-09-19T08:20:21.000Z,73.37
2023-09-19T08:21:22.000Z,73.41
2023-09-19T08:22:23.000Z,73.43
2023-09-19T08:23:21.000Z,73.51
2023-09-19T08:24:21.000Z,72.84
2023-09-19T08:25:22.000Z,72.94
2023-09-19T08:26:21.000Z,72.60
2023-09-19T08:27:22.000Z,72.44
2023-09-19T08:28:24.000Z,72.33
2023-09-19T08:29:23.000Z,72.31
2023-09-19T08:30:24.000Z,72.81
2023-09-19T08:31:22.000Z,72.40
2023-09-19T08:32:24.000Z,71.78
2023-09-19T08:33:21.000Z,71.71
2023-09-19T08:34:22.000Z,71.78
2023-09-19T08:35:23.000Z,72.08
2023-09-19T08:36:21.000Z,71.74
2023-09-19T08:37:21.000Z,72.48
2023-09-19T08:38:21.000Z,72.26
2023-09-19T08:39:24.000Z,72.42
2023-09-19T08:40:21.000Z,72.40
2023-09-19T08:41:21.000Z,71.76
2023-09-19T08:42:24.000Z,71.85
2023-09-19T08:43:21.000Z,71.88
2023-09-19T08:44:21.000Z,71.46
2023-09-19T08:45:24.000Z,71.60
2023-09-19T08:46:26.000Z,71.44
2023-09-19T08:47:31.000Z,71.99
2023-09-19T08:48:27.000Z,71.84
2023-09-19T08:49:36.000Z,71.53
2023-09-19T08:50:28.000Z,70.32
2023-09-19T08:51:26.000Z,71.42
2023-09-19T08:52:32.000Z,71.03
2023-09-19T08:53:34.000Z,70.39
2023-09-19T08:54:24.000Z,69.86
2023-09-19T08:55:27.000Z,70.14
2023-09-19T08:56:25.000Z,69.66
2023-09-19T08:57:22.000Z,68.85
2023-09-19T08:58:26.000Z,68.67
2023-09-19T08:59:25.000Z,67.86
2023-09-19T09:00:23.000Z,68.14
2023-09-19T09:01:28.000Z,68.57
2023-09-19T09:02:23.000Z,68.70
2023-09-19T09:03:23.000Z,67.17
2023-09-19T09:04:23.000Z,67.39
2023-09-19T09:05:23.000Z,67.18
2023-09-19T09:06:22.000Z,67.25
2023-09-19T09:07:22.000Z,67.17
2023-09-19T09:08:22.000Z,67.25
2023-09-19T09:09:21.000Z,67.35
2023-09-19T09:10:23.000Z,67.57
2023-09-19T09:11:23.000Z,67.84
2023-09-19T09:12:23.000Z,67.23
2023-09-19T09:13:23.000Z,66.38
2023-09-19T09:14:22.000Z,66.52
2023-09-19T09:15:23.000Z,66.73
2023-09-19T09:16:22.000Z,66.32
2023-09-19T09:17:22.000Z,65.27
2023-09-19T09:18:22.000Z,65.68
2023-09-19T09:19:24.000Z,66.34
2023-09-19T09:20:21.000Z,66.29
2023-09-19T09:21:25.000Z,66.07
2023-09-19T09:22:21.000Z,64.72
2023-09-19T09:23:21.000Z,65.04
2023-09-19T09:24:27.000Z,65.14
2023-09-19T09:25:44.000Z,65.19
2023-09-19T09:26:40.000Z,65.49
2023-09-19T09:27:24.000Z,65.22
2023-09-19T09:28:25.000Z,65.54
2023-09-19T09:29:31.000Z,65.59
2023-09-19T09:30:31.000Z,65.75
2023-09-19T09:31:22.000Z,65.60
2023-09-19T09:32:30.000Z,64.81
2023-09-19T09:33:21.000Z,65.23
2023-09-19T09:34:21.000Z,64.68
2023-09-19T09:35:21.000Z,65.36
2023-09-19T09:36:31.000Z,65.23
2023-09-19T09:37:22.000Z,64.43
2023-09-19T09:38:25.000Z,63.67
2023-09-19T09:39:29.000Z,63.78
2023-09-19T09:40:45.000Z,63.64
2023-09-19T09:41:35.000Z,64.12
2023-09-19T09:42:29.000Z,64.43
2023-09-19T09:43:26.000Z,64.59
2023-09-19T09:44:21.000Z,63.11
2023-09-19T09:45:26.000Z,63.20
2023-09-19T09:46:41.000Z,63.21
2023-09-19T09:47:36.000Z,63.22
2023-09-19T09:48:30.000Z,63.69
2023-09-19T09:49:26.000Z,62.89
2023-09-19T09:50:29.000Z,63.34
2023-09-19T09:51:29.000Z,63.41
2023-09-19T09:52:23.000Z,63.53
2023-09-19T09:53:26.000Z,62.99
2023-09-19T09:54:21.000Z,63.35
2023-09-19T09:55:20.000Z,63.18
2023-09-19T09:56:21.000Z,63.04
2023-09-19T09:57:23.000Z,63.05
2023-09-19T09:58:23.000Z,62.31
2023-09-19T09:59:47.000Z,62.58
2023-09-19T10:00:21.000Z,62.70
2023-09-19T10:01:26.000Z,62.34
2023-09-19T10:02:27.000Z,62.20
2023-09-19T10:03:34.000Z,62.37
2023-09-19T10:04:28.000Z,62.10
2023-09-19T10:05:22.000Z,61.40
2023-09-19T10:06:40.000Z,61.92
2023-09-19T10:07:27.000Z,61.81
2023-09-19T10:08:21.000Z,61.55
2023-09-19T10:09:29.000Z,61.81
2023-09-19T10:10:32.000Z,61.39
2023-09-19T10:11:30.000Z,61.31
2023-09-19T10:12:21.000Z,61.02
2023-09-19T10:13:27.000Z,61.05
2023-09-19T10:14:29.000Z,61.41
2023-09-19T10:15:26.000Z,61.10
2023-09-19T10:16:23.000Z,61.05
2023-09-19T10:17:25.000Z,59.78
2023-09-19T10:18:26.000Z,60.29
2023-09-19T10:19:30.000Z,59.98
2023-09-19T10:20:36.000Z,59.51
2023-09-19T10:21:22.000Z,59.23
2023-09-19T10:22:22.000Z,59.14
2023-09-19T10:23:27.000Z,59.01
2023-09-19T10:24:22.000Z,58.39
2023-09-19T10:25:29.000Z,59.09
2023-09-19T10:26:25.000Z,58.91
2023-09-19T10:27:25.000Z,59.12
2023-09-19T10:28:21.000Z,59.03
2023-09-19T10:29:22.000Z,59.27
2023-09-19T10:30:22.000Z,58.87
2023-09-19T10:31:26.000Z,57.96
2023-09-19T10:32:26.000Z,57.44
2023-09-19T10:33:22.000Z,57.32
2023-09-19T10:34:24.000Z,57.04
2023-09-19T10:35:21.000Z,57.54
2023-09-19T10:36:23.000Z,57.38
2023-09-19T10:37:26.000Z,57.15
2023-09-19T10:38:25.000Z,57.22
2023-09-19T10:39:22.000Z,57.07
2023-09-19T10:40:26.000Z,57.15
2023-09-19T10:41:21.000Z,56.84
2023-09-19T10:42:24.000Z,57.07
2023-09-19T10:43:25.000Z,57.03
2023-09-19T10:44:23.000Z,57.82
2023-09-19T10:45:21.000Z,57.07
2023-09-19T10:46:21.000Z,57.17
2023-09-19T10:47:23.000Z,57.84
2023-09-19T10:48:24.000Z,57.80
2023-09-19T10:49:22.000Z,57.20
2023-09-19T10:50:30.000Z,56.92
2023-09-19T10:51:28.000Z,56.06
2023-09-19T10:52:24.000Z,56.14
2023-09-19T10:53:21.000Z,56.58
2023-09-19T10:54:28.000Z,56.81
2023-09-19T10:55:22.000Z,56.97
2023-09-19T10:56:31.000Z,56.86
2023-09-19T10:57:24.000Z,56.86
2023-09-19T10:58:26.000Z,57.26
2023-09-19T10:59:21.000Z,57.22
2023-09-19T11:00:23.000Z,57.41
2023-09-19T11:01:41.000Z,56.82
2023-09-19T11:02:24.000Z,56.19
2023-09-19T11:03:23.000Z,56.71
2023-09-19T11:04:27.000Z,56.87
2023-09-19T11:05:21.000Z,56.99
2023-09-19T11:06:23.000Z,57.73
2023-09-19T11:07:21.000Z,57.04
2023-09-19T11:08:22.000Z,56.81
2023-09-19T11:09:58.000Z,56.81
2023-09-19T11:10:31.000Z,56.89
2023-09-19T11:11:36.000Z,56.35
2023-09-19T11:12:44.000Z,55.79
2023-09-19T11:13:27.000Z,56.11
2023-09-19T11:14:39.000Z,55.64
2023-09-19T11:15:32.000Z,55.52
2023-09-19T11:16:23.000Z,55.92
2023-09-19T11:17:40.000Z,55.47
2023-09-19T11:18:32.000Z,55.32
2023-09-19T11:19:21.000Z,54.51
2023-09-19T11:20:25.000Z,54.69
2023-09-19T11:21:41.000Z,54.04
2023-09-19T11:22:22.000Z,54.07
2023-09-19T11:23:22.000Z,55.00
2023-09-19T11:24:28.000Z,54.78
2023-09-19T11:25:44.000Z,55.43
2023-09-19T11:26:40.000Z,55.59
2023-09-19T11:27:21.000Z,54.84
2023-09-19T11:28:37.000Z,55.28
2023-09-19T11:29:25.000Z,54.07
2023-09-19T11:30:26.000Z,54.07
2023-09-19T11:31:31.000Z,54.62
2023-09-19T11:32:41.000Z,53.77
2023-09-19T11:33:28.000Z,54.57
2023-09-19T11:34:40.000Z,55.61
2023-09-19T11:35:22.000Z,55.52
2023-09-19T11:36:34.000Z,54.54
2023-09-19T11:37:53.000Z,54.55
2023-09-19T11:38:41.000Z,55.12
2023-09-19T11:39:25.000Z,55.02
2023-09-19T11:40:21.000Z,54.92
2023-09-19T11:41:36.000Z,55.71
2023-09-19T11:42:31.000Z,55.90
2023-09-19T11:43:28.000Z,56.01
2023-09-19T11:44:40.000Z,56.46
2023-09-19T11:45:31.000Z,57.07
2023-09-19T11:46:21.000Z,56.46
2023-09-19T11:47:22.000Z,56.28
2023-09-19T11:48:26.000Z,56.80
2023-09-19T11:49:31.000Z,56.58
2023-09-19T11:50:23.000Z,56.23
2023-09-19T11:51:26.000Z,55.60
2023-09-19T11:52:24.000Z,55.22
2023-09-19T11:53:22.000Z,55.12
2023-09-19T11:54:22.000Z,54.97
2023-09-19T11:55:21.000Z,54.25
2023-09-19T11:56:24.000Z,54.97
2023-09-19T11:57:22.000Z,54.47
2023-09-19T11:58:21.000Z,54.54
2023-09-19T11:59:26.000Z,54.64
2023-09-19T12:00:21.000Z,54.15
2023-09-19T12:01:30.000Z,53.74
2023-09-19T12:02:38.000Z,53.17
2023-09-19T12:03:21.000Z,53.57
2023-09-19T12:04:33.000Z,53.42
2023-09-19T12:05:30.000Z,51.83
2023-09-19T12:06:22.000Z,52.39
2023-09-19T12:07:21.000Z,52.93
2023-09-19T12:08:21.000Z,52.85
2023-09-19T12:09:21.000Z,53.33
2023-09-19T12:10:23.000Z,51.94
2023-09-19T12:11:21.000Z,51.80
2023-09-19T12:12:27.000Z,49.74
2023-09-19T12:13:21.000Z,49.63
2023-09-19T12:14:25.000Z,50.73
2023-09-19T12:15:24.000Z,51.56
2023-09-19T12:16:24.000Z,51.63
2023-09-19T12:17:34.000Z,50.39
2023-09-19T12:18:28.000Z,50.71
2023-09-19T12:19:22.000Z,50.66
2023-09-19T12:20:21.000Z,51.23
2023-09-19T12:21:23.000Z,50.93
2023-09-19T12:22:21.000Z,50.85
2023-09-19T12:23:20.000Z,51.09
2023-09-19T12:24:21.000Z,51.59
2023-09-19T12:25:21.000Z,51.47
2023-09-19T12:26:25.000Z,50.73
2023-09-19T12:27:21.000Z,51.77
2023-09-19T12:28:26.000Z,51.56
2023-09-19T12:29:21.000Z,52.05
2023-09-19T12:30:26.000Z,51.32
2023-09-19T12:31:21.000Z,51.48
2023-09-19T12:32:31.000Z,51.66
2023-09-19T12:33:25.000Z,52.16
2023-09-19T12:34:26.000Z,51.89
2023-09-19T12:35:26.000Z,52.67
2023-09-19T12:36:28.000Z,52.18
2023-09-19T12:37:21.000Z,52.09
2023-09-19T12:38:26.000Z,52.28
2023-09-19T12:39:23.000Z,51.83
2023-09-19T12:40:27.000Z,51.83
2023-09-19T12:41:21.000Z,51.06
2023-09-19T12:42:25.000Z,51.31
2023-09-19T12:43:21.000Z,50.67
2023-09-19T12:44:22.000Z,49.94
2023-09-19T12:45:21.000Z,49.81
2023-09-19T12:46:24.000Z,48.73
2023-09-19T12:47:23.000Z,48.87
2023-09-19T12:48:25.000Z,49.42
2023-09-19T12:49:22.000Z,48.96
2023-09-19T12:50:28.000Z,49.01
2023-09-19T12:51:34.000Z,49.45
2023-09-19T12:52:20.000Z,49.67